Flight Track Log - Related Links

Times and Time Zones

All times are in EDT time to prevent confusion due to time zone crossing. See the SWA2150 flight status page for this flight to view local times or setup timezone preferences in your user account.

Time Position Orientation Groundspeed Altitude Reporting Facility
EDT Latitude Longitude Course Direction KTS MPH feet Rate Location/Type
Sat 06:43:57 AM 34.8561 -82.2542 309° West 185 213 2,400  Level Atlanta Center
Sat 06:44:57 AM 34.8506 -82.3100 263° West 170 196 4,900 2,550 Climbing Atlanta Center
Sat 06:45:57 AM 34.8953 -82.3725 311° West 197 227 7,500 3,000 Climbing Atlanta Center
Sat 06:46:57 AM 34.9442 -82.4475 309° West 227 261 10,900 2,800 Climbing Atlanta Center
Sat 06:47:57 AM 35.0058 -82.5350 311° West 303 349 13,100 2,733 Climbing Atlanta Center
Sat 06:49:00 AM 35.2521 -82.8031 309° West  Level FlightAware Approximate
Sat 06:49:57 AM 35.1269 -82.7183 309° West 368 423 19,100  Level Atlanta Center
Sat 06:50:57 AM 35.1947 -82.8139 311° West 376 433 21,600 2,250 Climbing Atlanta Center
Sat 06:51:57 AM 35.2647 -82.9194 309° West 391 450 23,600 2,000 Climbing Atlanta Center
Sat 06:52:57 AM 35.3344 -83.0256 309° West 397 457 25,600 2,000 Climbing Atlanta Center
Sat 06:53:57 AM 35.4106 -83.1469 308° West 404 465 27,600 1,850 Climbing Atlanta Center
Sat 06:54:57 AM 35.4864 -83.2583 310° West 422 486 29,300 1,800 Climbing Atlanta Center
Sat 06:55:57 AM 35.5619 -83.3700 310° West 422 486 31,200 1,900 Climbing Atlanta Center
Sat 06:56:57 AM 35.6356 -83.4842 308° West 422 486 33,100 1,850 Climbing Atlanta Center
Sat 06:57:57 AM 35.7194 -83.5833 316° Northwest 422 486 34,900 1,950 Climbing Atlanta Center
Sat 06:58:57 AM 35.8158 -83.6622 326° Northwest 417 480 37,000 1,550 Climbing Atlanta Center
Sat 06:59:57 AM 35.9097 -83.7414 326° Northwest 412 474 38,000 357 Climbing Atlanta Center
Sat 07:01:45 AM 36.0803 -83.8775 327° Northwest 410 472 38,000  Level Indianapolis Center
Sat 07:02:46 AM 36.1767 -83.9544 327° Northwest 412 474 38,000  Level Indianapolis Center
Sat 07:03:47 AM 36.2739 -84.0356 326° Northwest 419 482 38,000  Level Indianapolis Center
Sat 07:04:48 AM 36.3717 -84.1147 327° Northwest 421 484 38,000  Level Indianapolis Center
Sat 07:05:48 AM 36.4694 -84.1964 326° Northwest 425 489 38,000  Level Indianapolis Center
Sat 07:06:49 AM 36.5733 -84.2808 327° Northwest 422 486 38,000  Level Indianapolis Center
Sat 07:07:50 AM 36.6686 -84.3597 326° Northwest 414 476 38,000  Level Indianapolis Center
Sat 07:08:51 AM 36.7647 -84.4408 326° Northwest 413 475 38,000  Level Indianapolis Center
Sat 07:09:51 AM 36.8519 -84.5133 326° Northwest 413 475 38,000  Level Indianapolis Center
Sat 07:10:52 AM 36.9489 -84.5919 327° Northwest 416 479 38,000  Level Indianapolis Center
Sat 07:11:53 AM 37.0714 -84.6472 340° North 426 490 38,000  Level Indianapolis Center
Sat 07:12:54 AM 37.1850 -84.6908 343° North 426 490 38,000  Level Indianapolis Center
Sat 07:13:55 AM 37.2964 -84.7347 343° North 421 484 38,000  Level Indianapolis Center
Sat 07:14:55 AM 37.4083 -84.7786 343° North 421 484 38,000  Level Indianapolis Center
Sat 07:15:56 AM 37.5200 -84.8233 342° North 420 483 38,000  Level Indianapolis Center
Sat 07:16:57 AM 37.6331 -84.8692 342° North 424 488 38,000  Level Indianapolis Center
Sat 07:17:58 AM 37.7450 -84.9128 343° North 421 484 38,000  Level Indianapolis Center
Sat 07:18:59 AM 37.8578 -84.9567 343° North 422 486 38,000  Level Indianapolis Center
Sat 07:20:00 AM 37.9900 -85.0078 343° North 424 488 38,000 -49 Level Indianapolis Center
Sat 07:21:01 AM 38.1025 -85.0539 342° North 422 486 37,900 -541 Descending Indianapolis Center
Sat 07:22:02 AM 38.2178 -85.0978 343° North 427 491 36,900 -934 Descending Indianapolis Center
Sat 07:23:03 AM 38.3286 -85.1422 343° North 418 481 36,000 -443 Descending Indianapolis Center
Sat 07:24:04 AM 38.4400 -85.1878 342° North 419 482 36,000  Level Indianapolis Center
Sat 07:25:05 AM 38.5506 -85.2344 342° North 421 484 36,000  Level Indianapolis Center
Sat 07:26:05 AM 38.6592 -85.2767 343° North 426 490 36,000  Level Indianapolis Center
Sat 07:27:06 AM 38.7728 -85.3239 342° North 431 496 36,000  Level Indianapolis Center
Sat 07:28:07 AM 38.8861 -85.3703 342° North 430 495 36,000  Level Indianapolis Center
Sat 07:29:08 AM 39.0003 -85.4178 342° North 432 497 36,000 -443 Level Indianapolis Center
Sat 07:30:09 AM 39.1153 -85.4636 343° North 434 499 35,100 -1,869 Descending Indianapolis Center
Sat 07:31:10 AM 39.2303 -85.5119 342° North 435 501 32,200 -2,607 Descending Indianapolis Center
Sat 07:32:11 AM 39.3653 -85.5675 342° North 428 493 29,800 -1,672 Descending Indianapolis Center
Sat 07:33:12 AM 39.4761 -85.6125 343° North 421 484 28,800 -934 Descending Indianapolis Center
Sat 07:34:13 AM 39.5847 -85.6586 342° North 415 478 27,900 -934 Descending Indianapolis Center
Sat 07:35:14 AM 39.6922 -85.7033 342° North 410 472 26,900 -984 Descending Indianapolis Center
Sat 07:36:15 AM 39.7989 -85.7489 342° North 409 471 25,900 -984 Descending Indianapolis Center
Sat 07:37:16 AM 39.9067 -85.7936 342° North 409 471 24,900 -934 Descending Indianapolis Center
Sat 07:38:17 AM 40.0097 -85.8478 338° Northwest 405 466 24,000 -443 Descending Indianapolis Center
Sat 07:39:18 AM 40.1075 -85.9125 333° Northwest 398 458 24,000  Level Indianapolis Center
Sat 07:40:19 AM 40.2036 -85.9794 332° Northwest 396 456 24,000 -197 Level Indianapolis Center
Sat 07:41:20 AM 40.3203 -86.0589 333° Northwest 397 457 23,600 -689 Descending Indianapolis Center
Sat 07:42:21 AM 40.4150 -86.1242 332° Northwest 390 449 22,600 -787 Descending Indianapolis Center
Sat 07:43:22 AM 40.5100 -86.1889 333° Northwest 386 444 22,000 -295 Descending Indianapolis Center
Sat 07:44:23 AM 40.6028 -86.2531 332° Northwest 380 437 22,000 -443 Level Indianapolis Center
Sat 07:45:24 AM 40.6953 -86.3175 332° Northwest 378 435 21,100 -1,426 Descending Indianapolis Center
Sat 07:46:25 AM 40.7853 -86.3803 332° Northwest 370 426 19,100 -2,115 Descending Indianapolis Center
Sat 07:47:26 AM 40.8717 -86.4411 332° Northwest 359 413 16,800 -2,115 Descending Indianapolis Center
Sat 07:48:27 AM 40.9567 -86.4989 333° Northwest 347 399 14,800 -1,918 Descending Indianapolis Center
Sat 07:49:28 AM 41.0392 -86.5583 331° Northwest 342 394 12,900 -1,869 Descending Indianapolis Center
Sat 07:50:29 AM 41.1206 -86.6169 332° Northwest 338 389 11,000 -1,328 Descending Indianapolis Center
Sat 07:51:30 AM 41.1847 -86.6969 317° Northwest 325 374 10,200 -420 Descending Indianapolis Center
Sat 07:52:52 AM 41.2789 -86.8325 313° West 315 362 10,000 -146 Descending Chicago Center

Login

Don't have an account? Register now (free) for customized features, flight alerts, and more!